East Weston, Colorado
Current Conditions -  °F | °C
As of 1:30 PM on Sunday 21 Dec 2014 (Local Time) from KVTP Reporting Station
Clear Clear  
Wind Chill: 13°   Ceiling: Unl
Heat Index: 27°   Visibility: 10mi
Dew Point: 18°   Wind: 21mph
Humidity: 69%   Direction: 200°SSW
Pressure: 29.74"   Gusts: 30mph
Location:  37.1566°N, 104.956°W
Report Text: KVTP 212030Z AUTO 20018G26KT 10SM CLR M03/M08 A2974 RMK AO2
Loading
Personal Weather Stations






























Interactive Weather Map New forecast layout! Learn more

10-Day Weather Forecast

Advertisements
Track Severe Weather on mobile